Flight Track Log - Related Links

Times and Time Zones

All times are in EDT time to prevent confusion due to time zone crossing. See the N27XP flight status page for this flight to view local times or setup timezone preferences in your user account.

Time Position Orientation Groundspeed Altitude Reporting Facility
EDT Latitude Longitude Course Direction KTS MPH feet Rate Location/Type
Tue 04:32:52 PM 35.3747 -79.2244 39° Northeast 266 306 7,800  Level Washington Center
Tue 04:33:49 PM 35.4392 -79.1664 36° Northeast 283 326 9,600 1,765 Climbing Washington Center
Tue 04:34:51 PM 35.5119 -79.1006 36° Northeast 309 356 11,300 1,512 Climbing Washington Center
Tue 04:35:52 PM 35.5869 -79.0375 34° Northeast 322 371 12,700 1,322 Climbing Washington Center
Tue 04:36:00 PM 35.6099 -79.0235 39° Northeast  Level FlightAware Approximate
Tue 04:36:49 PM 35.6661 -78.9667 36° Northeast 333 383 13,900  Level Washington Center
Tue 04:37:00 PM 35.6724 -78.9609 39° Northeast  Level FlightAware Approximate
Tue 04:37:49 PM 35.7475 -78.8961 35° Northeast 345 397 14,500  Level Washington Center
Tue 04:38:00 PM 35.7350 -78.8983 39° Northeast  Level FlightAware Approximate
Tue 04:38:50 PM 35.8286 -78.8250 35° Northeast 350 403 16,000  Level Washington Center
Tue 04:39:51 PM 35.8772 -78.7244 59° Northeast 350 403 19,000 1,041 Climbing Washington Center
Tue 04:40:51 PM 35.8869 -78.5942 85° East 342 394 18,100  Descending Washington Center
Tue 04:41:49 PM 35.9233 -78.4725 70° East 358 412 19,000 458 Climbing Washington Center
Tue 04:42:49 PM 35.9658 -78.3483 67° East 377 434 19,000  Level Washington Center
Tue 04:43:51 PM 36.0103 -78.2214 67° East 390 449 19,000  Level Washington Center
Tue 04:44:51 PM 36.0528 -78.0917 68° East 390 449 19,000  Level Washington Center
Tue 04:45:49 PM 36.0969 -77.9672 66° East 390 449 19,000  Level Washington Center
Tue 04:46:51 PM 36.1347 -77.8578 67° East 390 449 19,000  Level Washington Center
Tue 04:47:51 PM 36.1789 -77.7278 67° East 390 449 19,000  Level Washington Center
Tue 04:48:51 PM 36.2228 -77.6003 67° East 395 455 19,000 -577 Level Washington Center
Tue 04:49:35 PM 36.2578 -77.4878 69° East 402 463 18,000 -1,108 Descending Washington Center
Tue 04:49:56 PM 36.2689 -77.4544 68° East 402 463 17,800 -923 Descending Washington Center
Tue 04:50:53 PM 36.3103 -77.3319 67° East 397 457 16,800 -1,041 Descending Washington Center
Tue 04:51:57 PM 36.3539 -77.2014 67° East 389 448 15,700 -1,017 Descending Washington Center
Tue 04:52:51 PM 36.3908 -77.0886 68° East 390 449 14,800 -1,091 Descending Washington Center
Tue 04:53:58 PM 36.4361 -76.9578 67° East 379 436 13,500 -1,160 Descending Washington Center
Tue 04:54:50 PM 36.4708 -76.8497 68° East 380 437 12,500 -1,412 Descending Washington Center
Tue 04:55:57 PM 36.5117 -76.7214 68° East 350 403 10,700 -1,686 Descending Washington Center
Tue 04:56:51 PM 36.5375 -76.6286 71° East 345 397 9,100 -2,036 Descending Washington Center
Tue 04:57:49 PM 36.5633 -76.5358 71° East 308 354 6,900 -2,344 Descending Washington Center
Tue 04:58:59 PM 36.6078 -76.4458 58° Northeast 262 302 4,100 -2,118 Descending Washington Center
Tue 05:00:05 PM 36.6728 -76.3972 31° Northeast 245 282 2,100 -992 Descending Washington Center
Tue 05:01:06 PM 36.7211 -76.3692 25° Northeast 157 181 2,000 -49 Descending Washington Center
Tue 05:02:07 PM 36.7567 -76.3333 39° Northeast 171 197 2,000  Level Washington Center
Tue 05:03:01 PM 36.7944 -76.3025 33° Northeast 171 197 2,000  Level Washington Center

Login

Don't have an account? Register now (free) for customized features, flight alerts, and more!